sensor_id;sensor_type;location;lat;lon;timestamp;P1;durP1;ratioP1;P2;durP2;ratioP2
49540;SDS011;35432;43.566;1.398;2023-03-12T00:00:29;5.43;;;1.40;;
49540;SDS011;35432;43.566;1.398;2023-03-12T00:02:55;4.70;;;1.30;;
49540;SDS011;35432;43.566;1.398;2023-03-12T00:05:21;5.35;;;1.52;;
49540;SDS011;35432;43.566;1.398;2023-03-12T00:07:47;4.28;;;1.30;;
49540;SDS011;35432;43.566;1.398;2023-03-12T00:10:13;4.87;;;1.30;;
49540;SDS011;35432;43.566;1.398;2023-03-12T00:12:38;4.10;;;1.20;;
49540;SDS011;35432;43.566;1.398;2023-03-12T00:15:04;4.80;;;1.07;;
49540;SDS011;35432;43.566;1.398;2023-03-12T00:17:30;3.58;;;1.20;;
49540;SDS011;35432;43.566;1.398;2023-03-12T00:19:55;4.30;;;1.10;;
49540;SDS011;35432;43.566;1.398;2023-03-12T00:22:21;3.90;;;1.30;;
49540;SDS011;35432;43.566;1.398;2023-03-12T00:24:53;3.65;;;1.15;;
49540;SDS011;35432;43.566;1.398;2023-03-12T00:27:22;4.50;;;1.00;;
49540;SDS011;35432;43.566;1.398;2023-03-12T00:29:48;3.55;;;1.20;;
49540;SDS011;35432;43.566;1.398;2023-03-12T00:32:14;4.70;;;1.27;;
49540;SDS011;35432;43.566;1.398;2023-03-12T00:34:40;4.82;;;1.50;;
49540;SDS011;35432;43.566;1.398;2023-03-12T00:37:06;4.28;;;1.50;;
49540;SDS011;35432;43.566;1.398;2023-03-12T00:39:32;4.83;;;1.60;;
49540;SDS011;35432;43.566;1.398;2023-03-12T00:41:58;5.10;;;1.50;;
49540;SDS011;35432;43.566;1.398;2023-03-12T00:44:23;4.90;;;1.27;;
49540;SDS011;35432;43.566;1.398;2023-03-12T00:46:49;4.90;;;1.55;;
49540;SDS011;35432;43.566;1.398;2023-03-12T00:49:14;4.40;;;1.40;;
49540;SDS011;35432;43.566;1.398;2023-03-12T00:51:39;4.70;;;1.33;;
49540;SDS011;35432;43.566;1.398;2023-03-12T00:54:05;4.80;;;1.40;;
49540;SDS011;35432;43.566;1.398;2023-03-12T00:56:32;6.35;;;1.50;;
49540;SDS011;35432;43.566;1.398;2023-03-12T00:58:57;4.40;;;1.40;;
49540;SDS011;35432;43.566;1.398;2023-03-12T01:01:23;3.95;;;1.42;;
49540;SDS011;35432;43.566;1.398;2023-03-12T01:03:49;6.00;;;1.30;;
49540;SDS011;35432;43.566;1.398;2023-03-12T01:06:18;5.05;;;1.20;;
49540;SDS011;35432;43.566;1.398;2023-03-12T01:08:43;5.70;;;1.40;;
49540;SDS011;35432;43.566;1.398;2023-03-12T01:11:12;5.40;;;1.20;;
49540;SDS011;35432;43.566;1.398;2023-03-12T01:13:38;3.60;;;1.17;;
49540;SDS011;35432;43.566;1.398;2023-03-12T01:16:04;4.20;;;1.40;;
49540;SDS011;35432;43.566;1.398;2023-03-12T01:18:29;3.97;;;1.10;;
49540;SDS011;35432;43.566;1.398;2023-03-12T01:20:55;12.90;;;6.93;;
49540;SDS011;35432;43.566;1.398;2023-03-12T01:23:20;4.90;;;1.90;;
49540;SDS011;35432;43.566;1.398;2023-03-12T01:25:46;7.43;;;2.77;;
49540;SDS011;35432;43.566;1.398;2023-03-12T01:28:11;4.73;;;1.60;;
49540;SDS011;35432;43.566;1.398;2023-03-12T01:30:37;6.23;;;2.03;;
49540;SDS011;35432;43.566;1.398;2023-03-12T01:33:02;3.80;;;1.58;;
49540;SDS011;35432;43.566;1.398;2023-03-12T01:35:28;6.00;;;1.50;;
49540;SDS011;35432;43.566;1.398;2023-03-12T01:37:53;4.10;;;1.30;;
49540;SDS011;35432;43.566;1.398;2023-03-12T01:40:20;4.72;;;1.63;;
49540;SDS011;35432;43.566;1.398;2023-03-12T01:42:55;4.05;;;1.20;;
49540;SDS011;35432;43.566;1.398;2023-03-12T01:48:41;3.67;;;1.30;;
49540;SDS011;35432;43.566;1.398;2023-03-12T01:51:12;3.87;;;1.20;;
49540;SDS011;35432;43.566;1.398;2023-03-12T01:53:40;4.18;;;1.10;;
49540;SDS011;35432;43.566;1.398;2023-03-12T01:56:09;3.50;;;1.00;;
49540;SDS011;35432;43.566;1.398;2023-03-12T01:58:37;4.05;;;0.90;;
49540;SDS011;35432;43.566;1.398;2023-03-12T02:01:06;4.00;;;0.95;;
49540;SDS011;35432;43.566;1.398;2023-03-12T02:03:32;3.63;;;1.20;;
49540;SDS011;35432;43.566;1.398;2023-03-12T02:06:04;3.20;;;1.15;;
49540;SDS011;35432;43.566;1.398;2023-03-12T02:08:36;3.78;;;1.23;;
49540;SDS011;35432;43.566;1.398;2023-03-12T02:11:04;4.65;;;1.20;;
49540;SDS011;35432;43.566;1.398;2023-03-12T02:13:30;3.05;;;0.90;;
49540;SDS011;35432;43.566;1.398;2023-03-12T02:15:56;3.27;;;0.97;;
49540;SDS011;35432;43.566;1.398;2023-03-12T02:18:21;3.10;;;0.80;;
49540;SDS011;35432;43.566;1.398;2023-03-12T02:26:37;2.90;;;0.57;;
49540;SDS011;35432;43.566;1.398;2023-03-12T02:29:03;3.33;;;0.70;;
49540;SDS011;35432;43.566;1.398;2023-03-12T02:31:32;2.42;;;0.50;;
49540;SDS011;35432;43.566;1.398;2023-03-12T02:34:02;4.28;;;0.70;;
49540;SDS011;35432;43.566;1.398;2023-03-12T02:36:28;4.00;;;0.80;;
49540;SDS011;35432;43.566;1.398;2023-03-12T02:38:54;3.58;;;0.70;;
49540;SDS011;35432;43.566;1.398;2023-03-12T02:41:26;2.60;;;0.60;;
49540;SDS011;35432;43.566;1.398;2023-03-12T02:46:37;3.35;;;0.50;;
49540;SDS011;35432;43.566;1.398;2023-03-12T02:49:05;2.70;;;0.50;;
49540;SDS011;35432;43.566;1.398;2023-03-12T02:51:31;5.67;;;1.30;;
49540;SDS011;35432;43.566;1.398;2023-03-12T02:53:56;2.23;;;0.40;;
49540;SDS011;35432;43.566;1.398;2023-03-12T02:56:23;2.88;;;0.40;;
49540;SDS011;35432;43.566;1.398;2023-03-12T02:58:50;2.33;;;0.30;;
49540;SDS011;35432;43.566;1.398;2023-03-12T03:01:15;1.20;;;0.20;;
49540;SDS011;35432;43.566;1.398;2023-03-12T03:03:41;2.05;;;0.40;;
49540;SDS011;35432;43.566;1.398;2023-03-12T03:06:07;2.90;;;0.40;;
49540;SDS011;35432;43.566;1.398;2023-03-12T03:08:33;2.33;;;0.50;;
49540;SDS011;35432;43.566;1.398;2023-03-12T03:10:58;2.63;;;0.30;;
49540;SDS011;35432;43.566;1.398;2023-03-12T03:13:27;2.80;;;0.30;;
49540;SDS011;35432;43.566;1.398;2023-03-12T03:15:53;2.42;;;0.40;;
49540;SDS011;35432;43.566;1.398;2023-03-12T03:18:18;3.80;;;0.30;;
49540;SDS011;35432;43.566;1.398;2023-03-12T03:20:43;2.03;;;0.30;;
49540;SDS011;35432;43.566;1.398;2023-03-12T03:23:09;2.40;;;0.30;;
49540;SDS011;35432;43.566;1.398;2023-03-12T03:25:34;2.92;;;0.30;;
49540;SDS011;35432;43.566;1.398;2023-03-12T03:28:00;3.07;;;0.30;;
49540;SDS011;35432;43.566;1.398;2023-03-12T03:30:25;2.00;;;0.30;;
49540;SDS011;35432;43.566;1.398;2023-03-12T03:32:50;2.23;;;0.40;;
49540;SDS011;35432;43.566;1.398;2023-03-12T03:35:16;2.22;;;0.30;;
49540;SDS011;35432;43.566;1.398;2023-03-12T03:37:42;1.70;;;0.30;;
49540;SDS011;35432;43.566;1.398;2023-03-12T03:40:07;2.10;;;0.30;;
49540;SDS011;35432;43.566;1.398;2023-03-12T03:42:36;1.80;;;0.30;;
49540;SDS011;35432;43.566;1.398;2023-03-12T03:45:03;2.30;;;0.22;;
49540;SDS011;35432;43.566;1.398;2023-03-12T03:47:29;2.45;;;0.28;;
49540;SDS011;35432;43.566;1.398;2023-03-12T03:49:54;1.43;;;0.30;;
49540;SDS011;35432;43.566;1.398;2023-03-12T03:52:20;1.40;;;0.30;;
49540;SDS011;35432;43.566;1.398;2023-03-12T03:54:45;1.93;;;0.40;;
49540;SDS011;35432;43.566;1.398;2023-03-12T03:57:10;2.00;;;0.30;;
49540;SDS011;35432;43.566;1.398;2023-03-12T03:59:36;2.17;;;0.30;;
49540;SDS011;35432;43.566;1.398;2023-03-12T04:02:01;1.87;;;0.30;;
49540;SDS011;35432;43.566;1.398;2023-03-12T04:04:27;2.13;;;0.30;;
49540;SDS011;35432;43.566;1.398;2023-03-12T04:06:52;2.15;;;0.32;;
49540;SDS011;35432;43.566;1.398;2023-03-12T04:09:18;2.63;;;0.30;;
49540;SDS011;35432;43.566;1.398;2023-03-12T04:11:43;1.90;;;0.30;;
49540;SDS011;35432;43.566;1.398;2023-03-12T04:14:08;2.13;;;0.40;;
49540;SDS011;35432;43.566;1.398;2023-03-12T04:16:34;2.23;;;0.30;;
49540;SDS011;35432;43.566;1.398;2023-03-12T04:18:59;2.45;;;0.40;;
49540;SDS011;35432;43.566;1.398;2023-03-12T04:21:24;3.30;;;0.30;;
49540;SDS011;35432;43.566;1.398;2023-03-12T04:23:50;4.30;;;0.40;;
49540;SDS011;35432;43.566;1.398;2023-03-12T04:26:15;2.97;;;0.30;;
49540;SDS011;35432;43.566;1.398;2023-03-12T04:28:41;3.05;;;0.30;;
49540;SDS011;35432;43.566;1.398;2023-03-12T04:31:07;1.67;;;0.20;;
49540;SDS011;35432;43.566;1.398;2023-03-12T04:33:35;3.00;;;0.38;;
49540;SDS011;35432;43.566;1.398;2023-03-12T04:36:02;2.75;;;0.30;;
49540;SDS011;35432;43.566;1.398;2023-03-12T04:38:28;2.47;;;0.30;;
49540;SDS011;35432;43.566;1.398;2023-03-12T04:41:12;3.25;;;0.30;;
49540;SDS011;35432;43.566;1.398;2023-03-12T04:43:38;1.50;;;0.20;;
49540;SDS011;35432;43.566;1.398;2023-03-12T04:46:04;3.20;;;0.30;;
49540;SDS011;35432;43.566;1.398;2023-03-12T04:48:31;2.92;;;0.40;;
49540;SDS011;35432;43.566;1.398;2023-03-12T04:50:57;12.52;;;1.08;;
49540;SDS011;35432;43.566;1.398;2023-03-12T04:53:22;14.00;;;1.20;;
49540;SDS011;35432;43.566;1.398;2023-03-12T04:55:48;14.77;;;1.20;;
49540;SDS011;35432;43.566;1.398;2023-03-12T04:58:14;11.13;;;1.10;;
49540;SDS011;35432;43.566;1.398;2023-03-12T05:00:40;9.00;;;0.93;;
49540;SDS011;35432;43.566;1.398;2023-03-12T05:03:06;15.35;;;1.25;;
49540;SDS011;35432;43.566;1.398;2023-03-12T05:05:32;10.23;;;1.27;;
49540;SDS011;35432;43.566;1.398;2023-03-12T05:07:58;21.73;;;2.03;;
49540;SDS011;35432;43.566;1.398;2023-03-12T05:10:24;18.38;;;1.27;;
49540;SDS011;35432;43.566;1.398;2023-03-12T05:12:51;14.30;;;1.52;;
49540;SDS011;35432;43.566;1.398;2023-03-12T05:15:16;16.63;;;1.60;;
49540;SDS011;35432;43.566;1.398;2023-03-12T05:17:42;21.00;;;1.40;;
49540;SDS011;35432;43.566;1.398;2023-03-12T05:20:08;18.30;;;1.52;;
49540;SDS011;35432;43.566;1.398;2023-03-12T05:22:34;16.02;;;1.50;;
49540;SDS011;35432;43.566;1.398;2023-03-12T05:24:59;18.67;;;1.53;;
49540;SDS011;35432;43.566;1.398;2023-03-12T05:27:25;16.13;;;1.40;;
49540;SDS011;35432;43.566;1.398;2023-03-12T05:29:51;18.08;;;1.40;;
49540;SDS011;35432;43.566;1.398;2023-03-12T05:32:17;16.97;;;1.20;;
49540;SDS011;35432;43.566;1.398;2023-03-12T05:34:42;15.27;;;1.40;;
49540;SDS011;35432;43.566;1.398;2023-03-12T05:37:07;15.40;;;1.30;;
49540;SDS011;35432;43.566;1.398;2023-03-12T05:39:33;22.17;;;1.50;;
49540;SDS011;35432;43.566;1.398;2023-03-12T05:41:58;19.10;;;1.53;;
49540;SDS011;35432;43.566;1.398;2023-03-12T05:44:24;17.85;;;1.48;;
49540;SDS011;35432;43.566;1.398;2023-03-12T05:46:51;20.60;;;1.52;;
49540;SDS011;35432;43.566;1.398;2023-03-12T05:49:17;18.73;;;1.40;;
49540;SDS011;35432;43.566;1.398;2023-03-12T05:51:43;19.13;;;1.73;;
49540;SDS011;35432;43.566;1.398;2023-03-12T05:54:10;17.63;;;1.42;;
49540;SDS011;35432;43.566;1.398;2023-03-12T05:56:35;21.80;;;1.73;;
49540;SDS011;35432;43.566;1.398;2023-03-12T05:59:01;16.92;;;1.73;;
49540;SDS011;35432;43.566;1.398;2023-03-12T06:01:27;22.53;;;2.10;;
49540;SDS011;35432;43.566;1.398;2023-03-12T06:03:54;21.42;;;1.92;;
49540;SDS011;35432;43.566;1.398;2023-03-12T06:06:19;28.17;;;2.47;;
49540;SDS011;35432;43.566;1.398;2023-03-12T06:08:46;23.65;;;2.05;;
49540;SDS011;35432;43.566;1.398;2023-03-12T06:11:11;16.53;;;1.77;;
49540;SDS011;35432;43.566;1.398;2023-03-12T06:13:37;16.43;;;1.43;;
49540;SDS011;35432;43.566;1.398;2023-03-12T06:16:07;20.20;;;1.80;;
49540;SDS011;35432;43.566;1.398;2023-03-12T06:18:36;24.40;;;1.60;;
49540;SDS011;35432;43.566;1.398;2023-03-12T06:21:08;18.55;;;1.50;;
49540;SDS011;35432;43.566;1.398;2023-03-12T06:23:35;21.97;;;1.83;;
49540;SDS011;35432;43.566;1.398;2023-03-12T06:26:01;21.27;;;1.90;;
49540;SDS011;35432;43.566;1.398;2023-03-12T06:28:26;20.87;;;1.60;;
49540;SDS011;35432;43.566;1.398;2023-03-12T06:30:52;19.97;;;1.70;;
49540;SDS011;35432;43.566;1.398;2023-03-12T06:33:18;20.55;;;1.95;;
49540;SDS011;35432;43.566;1.398;2023-03-12T06:35:43;19.87;;;2.10;;
49540;SDS011;35432;43.566;1.398;2023-03-12T06:38:09;20.80;;;1.98;;
49540;SDS011;35432;43.566;1.398;2023-03-12T06:40:35;22.27;;;1.73;;
49540;SDS011;35432;43.566;1.398;2023-03-12T06:43:00;19.70;;;1.67;;
49540;SDS011;35432;43.566;1.398;2023-03-12T06:45:26;18.33;;;1.90;;
49540;SDS011;35432;43.566;1.398;2023-03-12T06:47:51;17.53;;;2.20;;
49540;SDS011;35432;43.566;1.398;2023-03-12T06:50:16;18.10;;;2.37;;
49540;SDS011;35432;43.566;1.398;2023-03-12T06:52:42;25.53;;;2.37;;
49540;SDS011;35432;43.566;1.398;2023-03-12T06:55:07;20.83;;;2.40;;
49540;SDS011;35432;43.566;1.398;2023-03-12T06:57:33;14.70;;;1.92;;
49540;SDS011;35432;43.566;1.398;2023-03-12T06:59:58;22.07;;;2.10;;
49540;SDS011;35432;43.566;1.398;2023-03-12T07:02:24;19.43;;;2.40;;
49540;SDS011;35432;43.566;1.398;2023-03-12T07:04:49;18.70;;;1.77;;
49540;SDS011;35432;43.566;1.398;2023-03-12T07:07:14;21.93;;;2.00;;
49540;SDS011;35432;43.566;1.398;2023-03-12T07:09:41;24.20;;;1.67;;
49540;SDS011;35432;43.566;1.398;2023-03-12T07:12:06;23.77;;;2.30;;
49540;SDS011;35432;43.566;1.398;2023-03-12T07:14:32;25.15;;;1.63;;
49540;SDS011;35432;43.566;1.398;2023-03-12T07:16:58;21.43;;;1.63;;
49540;SDS011;35432;43.566;1.398;2023-03-12T07:19:26;16.83;;;1.63;;
49540;SDS011;35432;43.566;1.398;2023-03-12T07:21:53;17.00;;;1.45;;
49540;SDS011;35432;43.566;1.398;2023-03-12T07:24:19;21.10;;;1.60;;
49540;SDS011;35432;43.566;1.398;2023-03-12T07:26:44;15.60;;;1.40;;
49540;SDS011;35432;43.566;1.398;2023-03-12T07:29:10;22.80;;;2.03;;
49540;SDS011;35432;43.566;1.398;2023-03-12T07:31:35;18.52;;;2.40;;
49540;SDS011;35432;43.566;1.398;2023-03-12T07:34:00;14.27;;;2.37;;
49540;SDS011;35432;43.566;1.398;2023-03-12T07:36:27;15.60;;;2.28;;
49540;SDS011;35432;43.566;1.398;2023-03-12T07:38:53;13.23;;;1.90;;
49540;SDS011;35432;43.566;1.398;2023-03-12T07:41:19;19.02;;;2.50;;
49540;SDS011;35432;43.566;1.398;2023-03-12T07:43:45;18.13;;;2.17;;
49540;SDS011;35432;43.566;1.398;2023-03-12T07:46:11;16.17;;;1.90;;
49540;SDS011;35432;43.566;1.398;2023-03-12T07:48:36;18.90;;;2.15;;
49540;SDS011;35432;43.566;1.398;2023-03-12T07:51:02;15.70;;;2.03;;
49540;SDS011;35432;43.566;1.398;2023-03-12T07:53:28;14.23;;;2.67;;
49540;SDS011;35432;43.566;1.398;2023-03-12T07:55:53;15.13;;;3.07;;
49540;SDS011;35432;43.566;1.398;2023-03-12T07:58:19;16.52;;;3.40;;
49540;SDS011;35432;43.566;1.398;2023-03-12T08:00:44;11.97;;;2.00;;
49540;SDS011;35432;43.566;1.398;2023-03-12T08:03:10;13.10;;;2.40;;
49540;SDS011;35432;43.566;1.398;2023-03-12T08:05:37;12.73;;;1.98;;
49540;SDS011;35432;43.566;1.398;2023-03-12T08:08:02;10.63;;;2.40;;
49540;SDS011;35432;43.566;1.398;2023-03-12T08:10:28;14.85;;;2.05;;
49540;SDS011;35432;43.566;1.398;2023-03-12T08:12:53;16.10;;;2.20;;
49540;SDS011;35432;43.566;1.398;2023-03-12T08:15:19;12.40;;;2.60;;
49540;SDS011;35432;43.566;1.398;2023-03-12T08:17:44;13.00;;;2.63;;
49540;SDS011;35432;43.566;1.398;2023-03-12T08:20:10;9.35;;;2.28;;
49540;SDS011;35432;43.566;1.398;2023-03-12T08:22:36;13.63;;;3.10;;
49540;SDS011;35432;43.566;1.398;2023-03-12T08:25:03;9.90;;;2.00;;
49540;SDS011;35432;43.566;1.398;2023-03-12T08:27:30;8.27;;;1.45;;
49540;SDS011;35432;43.566;1.398;2023-03-12T08:29:56;6.53;;;1.17;;
49540;SDS011;35432;43.566;1.398;2023-03-12T08:32:21;4.83;;;1.00;;
49540;SDS011;35432;43.566;1.398;2023-03-12T08:34:47;3.90;;;0.60;;
49540;SDS011;35432;43.566;1.398;2023-03-12T08:37:12;4.23;;;0.40;;
49540;SDS011;35432;43.566;1.398;2023-03-12T08:39:38;3.00;;;0.43;;
49540;SDS011;35432;43.566;1.398;2023-03-12T08:42:03;2.33;;;0.40;;
49540;SDS011;35432;43.566;1.398;2023-03-12T08:44:29;2.60;;;0.60;;
49540;SDS011;35432;43.566;1.398;2023-03-12T08:46:55;3.95;;;0.40;;
49540;SDS011;35432;43.566;1.398;2023-03-12T08:49:21;2.73;;;0.40;;
49540;SDS011;35432;43.566;1.398;2023-03-12T08:51:47;3.50;;;0.30;;
49540;SDS011;35432;43.566;1.398;2023-03-12T08:54:12;3.67;;;0.40;;
49540;SDS011;35432;43.566;1.398;2023-03-12T08:56:38;2.60;;;0.57;;
49540;SDS011;35432;43.566;1.398;2023-03-12T08:59:09;2.50;;;0.40;;
49540;SDS011;35432;43.566;1.398;2023-03-12T09:01:36;2.73;;;0.50;;
49540;SDS011;35432;43.566;1.398;2023-03-12T09:04:05;2.95;;;0.40;;
49540;SDS011;35432;43.566;1.398;2023-03-12T09:06:30;2.47;;;0.50;;
49540;SDS011;35432;43.566;1.398;2023-03-12T09:08:57;2.47;;;0.50;;
49540;SDS011;35432;43.566;1.398;2023-03-12T09:11:28;3.08;;;0.50;;
49540;SDS011;35432;43.566;1.398;2023-03-12T09:13:55;2.80;;;0.40;;
49540;SDS011;35432;43.566;1.398;2023-03-12T09:16:21;2.80;;;0.40;;
49540;SDS011;35432;43.566;1.398;2023-03-12T09:18:46;2.33;;;0.50;;
49540;SDS011;35432;43.566;1.398;2023-03-12T09:21:12;2.70;;;0.50;;
49540;SDS011;35432;43.566;1.398;2023-03-12T09:23:42;3.33;;;0.70;;
49540;SDS011;35432;43.566;1.398;2023-03-12T09:26:10;2.57;;;0.50;;
49540;SDS011;35432;43.566;1.398;2023-03-12T09:28:36;2.67;;;0.50;;
49540;SDS011;35432;43.566;1.398;2023-03-12T09:31:05;3.00;;;0.47;;
49540;SDS011;35432;43.566;1.398;2023-03-12T09:33:31;2.78;;;0.50;;
49540;SDS011;35432;43.566;1.398;2023-03-12T09:35:59;4.22;;;0.65;;
49540;SDS011;35432;43.566;1.398;2023-03-12T09:38:26;4.03;;;0.80;;
49540;SDS011;35432;43.566;1.398;2023-03-12T09:40:52;2.80;;;0.50;;
49540;SDS011;35432;43.566;1.398;2023-03-12T09:43:31;3.60;;;0.53;;
49540;SDS011;35432;43.566;1.398;2023-03-12T09:46:26;2.90;;;0.60;;
49540;SDS011;35432;43.566;1.398;2023-03-12T09:48:57;3.50;;;0.75;;
49540;SDS011;35432;43.566;1.398;2023-03-12T09:51:37;2.90;;;0.52;;
49540;SDS011;35432;43.566;1.398;2023-03-12T09:54:06;6.28;;;0.77;;
49540;SDS011;35432;43.566;1.398;2023-03-12T09:56:38;3.47;;;0.60;;
49540;SDS011;35432;43.566;1.398;2023-03-12T09:59:08;4.93;;;0.70;;
49540;SDS011;35432;43.566;1.398;2023-03-12T10:01:37;3.38;;;0.60;;
49540;SDS011;35432;43.566;1.398;2023-03-12T10:06:39;2.03;;;0.40;;
49540;SDS011;35432;43.566;1.398;2023-03-12T10:09:22;2.45;;;0.40;;
49540;SDS011;35432;43.566;1.398;2023-03-12T10:17:55;3.27;;;1.30;;
49540;SDS011;35432;43.566;1.398;2023-03-12T10:20:50;3.10;;;0.60;;
49540;SDS011;35432;43.566;1.398;2023-03-12T10:26:44;3.42;;;0.70;;
49540;SDS011;35432;43.566;1.398;2023-03-12T10:29:15;3.42;;;0.73;;
49540;SDS011;35432;43.566;1.398;2023-03-12T10:31:54;2.63;;;0.70;;
49540;SDS011;35432;43.566;1.398;2023-03-12T10:36:57;2.33;;;0.50;;
49540;SDS011;35432;43.566;1.398;2023-03-12T10:39:26;2.35;;;0.55;;
49540;SDS011;35432;43.566;1.398;2023-03-12T10:41:52;2.70;;;0.30;;
49540;SDS011;35432;43.566;1.398;2023-03-12T10:44:47;2.20;;;0.50;;
49540;SDS011;35432;43.566;1.398;2023-03-12T10:47:44;2.80;;;0.68;;
49540;SDS011;35432;43.566;1.398;2023-03-12T10:50:26;2.30;;;0.50;;
49540;SDS011;35432;43.566;1.398;2023-03-12T10:58:30;2.03;;;0.47;;
49540;SDS011;35432;43.566;1.398;2023-03-12T11:00:59;2.78;;;0.70;;
49540;SDS011;35432;43.566;1.398;2023-03-12T11:03:26;3.23;;;0.90;;
49540;SDS011;35432;43.566;1.398;2023-03-12T11:05:54;4.18;;;0.80;;
49540;SDS011;35432;43.566;1.398;2023-03-12T11:08:23;3.13;;;0.90;;
49540;SDS011;35432;43.566;1.398;2023-03-12T11:10:51;2.50;;;0.60;;
49540;SDS011;35432;43.566;1.398;2023-03-12T11:13:25;2.13;;;0.60;;
49540;SDS011;35432;43.566;1.398;2023-03-12T11:15:51;2.60;;;0.80;;
49540;SDS011;35432;43.566;1.398;2023-03-12T11:23:35;2.33;;;0.50;;
49540;SDS011;35432;43.566;1.398;2023-03-12T11:28:50;2.20;;;0.60;;
49540;SDS011;35432;43.566;1.398;2023-03-12T11:31:26;3.13;;;0.60;;
49540;SDS011;35432;43.566;1.398;2023-03-12T11:34:01;2.80;;;0.80;;
49540;SDS011;35432;43.566;1.398;2023-03-12T11:58:56;3.03;;;0.55;;
49540;SDS011;35432;43.566;1.398;2023-03-12T12:22:45;3.67;;;1.33;;
49540;SDS011;35432;43.566;1.398;2023-03-12T12:31:33;2.67;;;0.60;;
49540;SDS011;35432;43.566;1.398;2023-03-12T12:34:24;2.20;;;0.50;;
49540;SDS011;35432;43.566;1.398;2023-03-12T12:37:26;2.05;;;0.50;;
49540;SDS011;35432;43.566;1.398;2023-03-12T12:42:48;2.53;;;0.73;;
49540;SDS011;35432;43.566;1.398;2023-03-12T12:45:20;2.67;;;0.70;;
49540;SDS011;35432;43.566;1.398;2023-03-12T12:47:50;2.90;;;0.60;;
49540;SDS011;35432;43.566;1.398;2023-03-12T12:50:21;2.95;;;0.60;;
49540;SDS011;35432;43.566;1.398;2023-03-12T12:53:02;2.25;;;0.50;;
49540;SDS011;35432;43.566;1.398;2023-03-12T12:58:41;2.53;;;0.50;;
49540;SDS011;35432;43.566;1.398;2023-03-12T13:01:08;2.03;;;0.50;;
49540;SDS011;35432;43.566;1.398;2023-03-12T13:03:34;2.03;;;0.47;;
49540;SDS011;35432;43.566;1.398;2023-03-12T13:06:02;2.08;;;0.50;;
49540;SDS011;35432;43.566;1.398;2023-03-12T13:13:42;2.97;;;0.68;;
49540;SDS011;35432;43.566;1.398;2023-03-12T13:16:18;2.80;;;0.60;;
49540;SDS011;35432;43.566;1.398;2023-03-12T13:19:17;2.88;;;0.63;;
49540;SDS011;35432;43.566;1.398;2023-03-12T13:22:09;2.47;;;0.50;;
49540;SDS011;35432;43.566;1.398;2023-03-12T13:24:56;3.03;;;0.50;;
49540;SDS011;35432;43.566;1.398;2023-03-12T13:27:38;3.45;;;0.50;;
49540;SDS011;35432;43.566;1.398;2023-03-12T13:46:05;2.58;;;0.57;;
49540;SDS011;35432;43.566;1.398;2023-03-12T13:48:56;2.35;;;0.50;;
49540;SDS011;35432;43.566;1.398;2023-03-12T13:51:27;2.30;;;0.50;;
49540;SDS011;35432;43.566;1.398;2023-03-12T13:53:54;3.13;;;0.70;;
49540;SDS011;35432;43.566;1.398;2023-03-12T13:56:27;2.60;;;0.70;;
49540;SDS011;35432;43.566;1.398;2023-03-12T14:01:27;2.40;;;0.60;;
49540;SDS011;35432;43.566;1.398;2023-03-12T14:03:57;2.40;;;0.60;;
49540;SDS011;35432;43.566;1.398;2023-03-12T14:06:26;2.42;;;0.50;;
49540;SDS011;35432;43.566;1.398;2023-03-12T14:16:56;3.20;;;0.40;;
49540;SDS011;35432;43.566;1.398;2023-03-12T14:19:25;2.40;;;0.40;;
49540;SDS011;35432;43.566;1.398;2023-03-12T14:21:53;2.40;;;0.40;;
49540;SDS011;35432;43.566;1.398;2023-03-12T14:26:54;2.42;;;0.40;;
49540;SDS011;35432;43.566;1.398;2023-03-12T14:29:28;4.27;;;1.53;;
49540;SDS011;35432;43.566;1.398;2023-03-12T14:32:05;2.95;;;0.50;;
49540;SDS011;35432;43.566;1.398;2023-03-12T14:34:42;3.17;;;0.50;;
49540;SDS011;35432;43.566;1.398;2023-03-12T14:37:36;2.80;;;0.60;;
49540;SDS011;35432;43.566;1.398;2023-03-12T14:43:19;2.33;;;0.53;;
49540;SDS011;35432;43.566;1.398;2023-03-12T14:45:48;2.53;;;0.40;;
49540;SDS011;35432;43.566;1.398;2023-03-12T14:48:31;1.42;;;0.30;;
49540;SDS011;35432;43.566;1.398;2023-03-12T14:50:59;2.78;;;0.50;;
49540;SDS011;35432;43.566;1.398;2023-03-12T14:53:27;1.92;;;0.40;;
49540;SDS011;35432;43.566;1.398;2023-03-12T14:56:03;11.00;;;3.47;;
49540;SDS011;35432;43.566;1.398;2023-03-12T14:58:29;1.98;;;0.50;;
49540;SDS011;35432;43.566;1.398;2023-03-12T15:00:59;2.78;;;0.57;;
49540;SDS011;35432;43.566;1.398;2023-03-12T15:03:27;1.73;;;0.30;;
49540;SDS011;35432;43.566;1.398;2023-03-12T15:05:54;3.30;;;0.50;;
49540;SDS011;35432;43.566;1.398;2023-03-12T15:08:26;3.10;;;0.67;;
49540;SDS011;35432;43.566;1.398;2023-03-12T15:10:56;3.67;;;0.65;;
49540;SDS011;35432;43.566;1.398;2023-03-12T15:13:23;4.05;;;0.60;;
49540;SDS011;35432;43.566;1.398;2023-03-12T15:15:51;3.40;;;0.70;;
49540;SDS011;35432;43.566;1.398;2023-03-12T15:20:49;1.58;;;0.30;;
49540;SDS011;35432;43.566;1.398;2023-03-12T15:23:17;2.40;;;0.32;;
49540;SDS011;35432;43.566;1.398;2023-03-12T15:25:45;2.58;;;0.50;;
49540;SDS011;35432;43.566;1.398;2023-03-12T15:30:39;1.90;;;0.40;;
49540;SDS011;35432;43.566;1.398;2023-03-12T15:33:07;2.03;;;0.40;;
49540;SDS011;35432;43.566;1.398;2023-03-12T15:35:55;2.20;;;0.40;;
49540;SDS011;35432;43.566;1.398;2023-03-12T15:38:50;2.10;;;0.40;;
49540;SDS011;35432;43.566;1.398;2023-03-12T15:41:19;2.17;;;0.40;;
49540;SDS011;35432;43.566;1.398;2023-03-12T15:43:49;2.10;;;0.40;;
49540;SDS011;35432;43.566;1.398;2023-03-12T15:46:19;2.13;;;0.40;;
49540;SDS011;35432;43.566;1.398;2023-03-12T15:48:47;2.97;;;0.57;;
49540;SDS011;35432;43.566;1.398;2023-03-12T15:51:26;2.30;;;0.40;;
49540;SDS011;35432;43.566;1.398;2023-03-12T15:53:59;2.93;;;0.40;;
49540;SDS011;35432;43.566;1.398;2023-03-12T15:56:29;2.05;;;0.40;;
49540;SDS011;35432;43.566;1.398;2023-03-12T15:59:19;2.17;;;0.47;;
49540;SDS011;35432;43.566;1.398;2023-03-12T16:01:50;2.85;;;0.60;;
49540;SDS011;35432;43.566;1.398;2023-03-12T16:04:17;3.70;;;0.88;;
49540;SDS011;35432;43.566;1.398;2023-03-12T16:06:44;2.67;;;0.50;;
49540;SDS011;35432;43.566;1.398;2023-03-12T16:09:17;3.50;;;0.50;;
49540;SDS011;35432;43.566;1.398;2023-03-12T16:11:45;3.88;;;0.70;;
49540;SDS011;35432;43.566;1.398;2023-03-12T16:14:19;2.50;;;0.50;;
49540;SDS011;35432;43.566;1.398;2023-03-12T16:16:51;3.07;;;0.50;;
49540;SDS011;35432;43.566;1.398;2023-03-12T16:19:18;2.20;;;0.40;;
49540;SDS011;35432;43.566;1.398;2023-03-12T16:21:46;2.63;;;0.52;;
49540;SDS011;35432;43.566;1.398;2023-03-12T16:24:11;2.45;;;0.40;;
49540;SDS011;35432;43.566;1.398;2023-03-12T16:26:50;3.50;;;0.40;;
49540;SDS011;35432;43.566;1.398;2023-03-12T16:29:17;2.15;;;0.40;;
49540;SDS011;35432;43.566;1.398;2023-03-12T16:31:46;2.53;;;0.40;;
49540;SDS011;35432;43.566;1.398;2023-03-12T16:34:18;3.05;;;0.57;;
49540;SDS011;35432;43.566;1.398;2023-03-12T16:36:43;3.20;;;0.40;;
49540;SDS011;35432;43.566;1.398;2023-03-12T16:39:09;5.17;;;0.50;;
49540;SDS011;35432;43.566;1.398;2023-03-12T16:41:34;2.80;;;0.50;;
49540;SDS011;35432;43.566;1.398;2023-03-12T16:44:00;2.37;;;0.40;;
49540;SDS011;35432;43.566;1.398;2023-03-12T16:46:27;4.47;;;0.55;;
49540;SDS011;35432;43.566;1.398;2023-03-12T16:48:55;2.73;;;0.50;;
49540;SDS011;35432;43.566;1.398;2023-03-12T16:51:21;3.33;;;0.93;;
49540;SDS011;35432;43.566;1.398;2023-03-12T16:53:47;2.20;;;0.43;;
49540;SDS011;35432;43.566;1.398;2023-03-12T16:56:14;3.25;;;0.60;;
49540;SDS011;35432;43.566;1.398;2023-03-12T16:58:42;3.97;;;0.75;;
49540;SDS011;35432;43.566;1.398;2023-03-12T17:01:10;4.28;;;1.02;;
49540;SDS011;35432;43.566;1.398;2023-03-12T17:03:37;5.73;;;1.40;;
49540;SDS011;35432;43.566;1.398;2023-03-12T17:06:04;4.03;;;0.90;;
49540;SDS011;35432;43.566;1.398;2023-03-12T17:08:31;5.13;;;0.60;;
49540;SDS011;35432;43.566;1.398;2023-03-12T17:10:56;3.73;;;0.50;;